KTPH/TPH METAR and TAF weather

Enter ICAO airport designator
Station Type Date Time Source
KTPH METAR 2019/08/24 08:56 UTC NOAA

KTPH 240856Z AUTO 00000KT 10SM CLR 16/M04 A3012 RMK AO2 SLP117 T01611039 51010


Station Type Date Time Source
KTPH Decoded METAR 2019/08/24 08:56 UTC NOAA

Station name not available
Aug 24, 2019 - 04:56 AM EDT / 2019.08.24 0856 UTC
Wind: Calm:0
Visibility: 10 mile(s):0
Sky conditions: clear
Temperature: 61.0 F (16.1 C)
Dew Point: 25.0 F (-3.9 C)
Relative Humidity: 25%
Pressure (altimeter): 30.12 in. Hg (1019 hPa)
Pressure tendency: 0.03 inches (1.0 hPa) higher than three hours ago
ob: KTPH 240856Z AUTO 00000KT 10SM CLR 16/M04 A3012 RMK AO2 SLP117 T01611039 51010
cycle: 9

Station Type Date Time Source
KTPH TAF 2019/08/24 06:42 UTC NOAA

TAF KTPH 240540Z 2406/2506 02006KT P6SM FEW300
FM241900 20010G18KT P6SM FEW300
FM250200 22008KT P6SM FEW300

Example: see airport list